ABG1511 HESH-UWWW
Flight info
| Callsign | ABG1511 |
|---|---|
| Flight time | N/A |
| Altitude | 32000 |
| Route | DELN1C DELNA R650 NOVPA J981 DATOK L550 APLON M28 LCA N131 DOREN UA28 MUT UA285 ERGEP/N0447F350 UA285 SELVI/N0448F350 UA285 GEM UT243 CRM UG901 BALUM G901 KEPOL G487 GUBOR A944 BEMES R227 AKT W324 PIRIM N60 KOLIB/N0450F360 N60 LOKOZ M158 LEDGI/N0456F300 M161 DENUD T784 GITEK DCT |
| Aircraft | B739/M-SDE1FGHIJ1RWXYZ/LB1 |
Departure
| Time | N/A |
|---|---|
| Airport | Sharm El Sheikh International Airport (HESH) |
Arrival
| Time | 2026-04-30 20:34 |
|---|---|
| Airport | Kurumoch International Airport (UWWW) |
| Time | Latitude | Longitude | Altitude | Speed | Heading |
|---|---|---|---|---|---|
| 2026-04-30 17:39 | 39.99213 | 36.30251 | 34903 ft | 463 kts | 2° |
| 2026-04-30 17:42 | 40.31088 | 36.36772 | 34879 ft | 465 kts | 4° |
| 2026-04-30 17:43 | 40.47088 | 36.39808 | 34882 ft | 464 kts | 2° |
| 2026-04-30 17:44 | 40.66231 | 36.43392 | 34901 ft | 464 kts | 2° |
| 2026-04-30 17:47 | 40.95056 | 36.48858 | 34966 ft | 465 kts | 2° |
| 2026-04-30 17:48 | 41.17525 | 36.53152 | 35016 ft | 466 kts | 1° |
| 2026-04-30 17:49 | 41.30097 | 36.57452 | 35021 ft | 481 kts | 23° |
| 2026-04-30 17:50 | 41.41747 | 36.66516 | 35021 ft | 487 kts | 25° |
| 2026-04-30 17:52 | 41.59198 | 36.80123 | 35020 ft | 487 kts | 25° |
| 2026-04-30 17:54 | 41.85509 | 37.00692 | 35016 ft | 487 kts | 25° |
| 2026-04-30 17:56 | 42.08736 | 37.18962 | 35013 ft | 489 kts | 25° |
| 2026-04-30 17:58 | 42.26306 | 37.32876 | 35007 ft | 489 kts | 25° |
| 2026-04-30 18:00 | 42.49726 | 37.51566 | 34998 ft | 488 kts | 25° |
| 2026-04-30 18:01 | 42.64345 | 37.63314 | 34996 ft | 489 kts | 25° |
| 2026-04-30 18:02 | 42.81501 | 37.78546 | 35000 ft | 494 kts | 29° |
| 2026-04-30 18:04 | 42.98542 | 37.94397 | 34989 ft | 495 kts | 29° |
| 2026-04-30 18:05 | 43.06537 | 38.09439 | 35014 ft | 509 kts | 67° |
| 2026-04-30 18:06 | 43.11724 | 38.27600 | 34978 ft | 513 kts | 67° |
| 2026-04-30 18:08 | 43.20953 | 38.59415 | 34977 ft | 514 kts | 67° |
| 2026-04-30 18:10 | 43.31348 | 38.95898 | 34970 ft | 514 kts | 68° |
| 2026-04-30 18:11 | 43.41144 | 39.27363 | 34966 ft | 514 kts | 62° |
| 2026-04-30 18:13 | 43.48694 | 39.49667 | 34965 ft | 517 kts | 63° |
| 2026-04-30 18:14 | 43.56201 | 39.72226 | 34965 ft | 519 kts | 63° |
| 2026-04-30 18:15 | 43.65120 | 39.99463 | 34964 ft | 520 kts | 64° |
| 2026-04-30 18:16 | 43.71024 | 40.17640 | 34966 ft | 520 kts | 64° |
| 2026-04-30 18:17 | 43.73479 | 40.25232 | 34966 ft | 520 kts | 64° |
| 2026-04-30 18:18 | 43.77892 | 40.38929 | 34967 ft | 520 kts | 64° |
| 2026-04-30 18:18 | 43.80822 | 40.48069 | 34967 ft | 518 kts | 64° |
| 2026-04-30 18:19 | 43.83740 | 40.57203 | 34970 ft | 518 kts | 64° |
| 2026-04-30 18:19 | 43.86647 | 40.66329 | 34968 ft | 518 kts | 64° |
| 2026-04-30 18:20 | 43.88562 | 40.75897 | 34985 ft | 519 kts | 84° |
| 2026-04-30 18:20 | 43.89015 | 40.85865 | 34955 ft | 517 kts | 89° |
| 2026-04-30 18:21 | 43.89307 | 40.95827 | 34962 ft | 517 kts | 89° |
| 2026-04-30 18:21 | 43.89666 | 41.05710 | 34962 ft | 516 kts | 88° |
| 2026-04-30 18:22 | 43.90070 | 41.15670 | 34964 ft | 516 kts | 88° |
| 2026-04-30 18:22 | 43.90668 | 41.30579 | 34963 ft | 517 kts | 88° |
| 2026-04-30 18:23 | 43.91061 | 41.40539 | 34968 ft | 517 kts | 88° |
| 2026-04-30 18:23 | 43.91442 | 41.50486 | 34963 ft | 517 kts | 88° |
| 2026-04-30 18:24 | 43.91988 | 41.65442 | 34962 ft | 518 kts | 88° |
| 2026-04-30 18:25 | 43.92336 | 41.75418 | 34962 ft | 518 kts | 88° |
| 2026-04-30 18:25 | 43.92842 | 41.90416 | 34948 ft | 519 kts | 88° |
| 2026-04-30 18:26 | 43.93326 | 42.05350 | 34967 ft | 519 kts | 88° |
| 2026-04-30 18:27 | 43.93794 | 42.20361 | 34968 ft | 519 kts | 89° |
| 2026-04-30 18:28 | 43.94240 | 42.35340 | 34969 ft | 518 kts | 89° |
| 2026-04-30 18:28 | 43.94667 | 42.50294 | 34973 ft | 517 kts | 89° |
| 2026-04-30 18:29 | 43.95124 | 42.70193 | 34975 ft | 515 kts | 90° |
| 2026-04-30 18:30 | 43.95151 | 42.89789 | 34977 ft | 513 kts | 91° |
| 2026-04-30 18:31 | 43.95176 | 43.04634 | 34979 ft | 512 kts | 90° |
| 2026-04-30 18:32 | 43.95194 | 43.19492 | 34974 ft | 513 kts | 91° |
| 2026-04-30 18:33 | 43.95197 | 43.34341 | 34967 ft | 513 kts | 91° |
| 2026-04-30 18:33 | 43.95181 | 43.49130 | 34956 ft | 513 kts | 91° |
| 2026-04-30 18:34 | 43.95146 | 43.64003 | 34945 ft | 514 kts | 91° |
| 2026-04-30 18:35 | 43.95112 | 43.73938 | 34941 ft | 514 kts | 91° |
| 2026-04-30 18:35 | 43.95069 | 43.83859 | 34937 ft | 514 kts | 91° |
| 2026-04-30 18:36 | 43.94989 | 43.98747 | 34934 ft | 514 kts | 91° |
| 2026-04-30 18:37 | 43.94890 | 44.13630 | 34933 ft | 514 kts | 91° |
| 2026-04-30 18:37 | 43.94813 | 44.23556 | 34931 ft | 514 kts | 91° |
| 2026-04-30 18:38 | 43.94727 | 44.33484 | 34933 ft | 514 kts | 91° |
| 2026-04-30 18:38 | 43.94633 | 44.43388 | 34934 ft | 513 kts | 91° |
| 2026-04-30 18:39 | 43.94531 | 44.53283 | 34935 ft | 512 kts | 91° |
| 2026-04-30 18:39 | 43.94421 | 44.63139 | 34936 ft | 510 kts | 91° |
| 2026-04-30 18:40 | 43.94301 | 44.72973 | 34943 ft | 509 kts | 92° |
| 2026-04-30 18:40 | 43.94175 | 44.82738 | 34939 ft | 508 kts | 92° |
| 2026-04-30 18:41 | 43.94040 | 44.92528 | 34940 ft | 507 kts | 92° |
| 2026-04-30 18:41 | 43.93898 | 45.02299 | 34938 ft | 506 kts | 92° |
| 2026-04-30 18:42 | 43.93746 | 45.12046 | 34935 ft | 505 kts | 92° |
| 2026-04-30 18:42 | 43.93505 | 45.26650 | 34935 ft | 504 kts | 92° |
| 2026-04-30 18:45 | 43.92464 | 45.79981 | 34920 ft | 503 kts | 93° |
| 2026-04-30 18:46 | 43.92248 | 45.89670 | 34918 ft | 503 kts | 94° |
| 2026-04-30 18:46 | 43.91688 | 45.99339 | 34917 ft | 501 kts | 99° |
| 2026-04-30 18:47 | 43.90558 | 46.08869 | 34911 ft | 500 kts | 103° |
| 2026-04-30 18:47 | 43.89332 | 46.18299 | 34903 ft | 500 kts | 102° |
| 2026-04-30 18:48 | 43.88220 | 46.27796 | 34892 ft | 499 kts | 101° |
| 2026-04-30 18:48 | 43.87193 | 46.37323 | 34882 ft | 498 kts | 101° |
| 2026-04-30 18:49 | 43.86169 | 46.46826 | 34889 ft | 498 kts | 101° |
| 2026-04-30 18:49 | 43.85135 | 46.56313 | 34881 ft | 498 kts | 101° |
| 2026-04-30 18:50 | 43.84093 | 46.65784 | 34882 ft | 497 kts | 101° |
| 2026-04-30 18:50 | 43.83389 | 46.75297 | 34879 ft | 497 kts | 94° |
| 2026-04-30 18:51 | 43.83382 | 46.84865 | 34873 ft | 497 kts | 88° |
| 2026-04-30 18:51 | 43.83836 | 46.94410 | 34867 ft | 496 kts | 87° |
| 2026-04-30 18:52 | 43.84240 | 47.03942 | 34871 ft | 495 kts | 88° |
| 2026-04-30 18:52 | 43.84515 | 47.13477 | 34871 ft | 495 kts | 89° |
| 2026-04-30 18:53 | 43.84713 | 47.23000 | 34871 ft | 494 kts | 90° |
| 2026-04-30 18:53 | 43.84903 | 47.32438 | 34869 ft | 493 kts | 90° |
| 2026-04-30 18:54 | 43.85092 | 47.41934 | 34869 ft | 493 kts | 90° |
| 2026-04-30 18:54 | 43.85276 | 47.51413 | 34868 ft | 491 kts | 90° |
| 2026-04-30 18:55 | 43.85451 | 47.60881 | 34868 ft | 491 kts | 90° |
| 2026-04-30 18:55 | 43.85701 | 47.75087 | 34854 ft | 491 kts | 90° |
| 2026-04-30 18:56 | 43.85929 | 47.89074 | 34855 ft | 491 kts | 90° |
| 2026-04-30 18:57 | 43.86144 | 48.03255 | 34855 ft | 491 kts | 91° |
| 2026-04-30 18:57 | 43.86266 | 48.11925 | 34861 ft | 491 kts | 91° |
| 2026-04-30 18:58 | 43.86453 | 48.26103 | 34862 ft | 490 kts | 91° |
| 2026-04-30 18:59 | 43.86621 | 48.40193 | 34863 ft | 489 kts | 91° |
| 2026-04-30 19:00 | 43.86818 | 48.59044 | 34866 ft | 489 kts | 91° |
| 2026-04-30 19:01 | 43.86984 | 48.77857 | 34870 ft | 487 kts | 91° |
| 2026-04-30 19:02 | 43.87088 | 48.91907 | 34869 ft | 485 kts | 91° |
| 2026-04-30 19:03 | 43.87199 | 49.10584 | 34877 ft | 484 kts | 91° |
| 2026-04-30 19:04 | 43.87278 | 49.28951 | 34880 ft | 482 kts | 91° |
| 2026-04-30 19:05 | 43.88780 | 49.47183 | 34890 ft | 483 kts | 60° |
| 2026-04-30 19:05 | 43.93465 | 49.53674 | 34895 ft | 479 kts | 29° |
| 2026-04-30 19:06 | 43.99319 | 49.58010 | 34913 ft | 476 kts | 24° |
| 2026-04-30 19:06 | 44.08134 | 49.63840 | 34887 ft | 476 kts | 22° |
| 2026-04-30 19:07 | 44.17122 | 49.69781 | 34888 ft | 477 kts | 22° |
| 2026-04-30 19:08 | 44.29089 | 49.77767 | 34890 ft | 477 kts | 23° |
| 2026-04-30 19:09 | 44.38070 | 49.83794 | 34889 ft | 478 kts | 23° |
| 2026-04-30 19:09 | 44.44060 | 49.87826 | 34891 ft | 478 kts | 23° |
| 2026-04-30 19:10 | 44.56066 | 49.95933 | 34890 ft | 479 kts | 23° |
| 2026-04-30 19:11 | 44.65072 | 50.02046 | 34888 ft | 479 kts | 23° |
| 2026-04-30 19:12 | 44.71091 | 50.06139 | 34888 ft | 480 kts | 23° |
| 2026-04-30 19:12 | 44.77070 | 50.10215 | 34889 ft | 481 kts | 23° |
| 2026-04-30 19:13 | 44.89137 | 50.18470 | 34886 ft | 483 kts | 23° |
| 2026-04-30 19:14 | 44.95187 | 50.22624 | 34888 ft | 484 kts | 23° |
| 2026-04-30 19:14 | 45.01213 | 50.26772 | 34888 ft | 485 kts | 23° |
| 2026-04-30 19:15 | 45.07278 | 50.30956 | 34888 ft | 486 kts | 23° |
| 2026-04-30 19:15 | 45.16390 | 50.37262 | 34886 ft | 486 kts | 23° |
| 2026-04-30 19:16 | 45.22474 | 50.41483 | 34885 ft | 487 kts | 23° |
| 2026-04-30 19:17 | 45.31618 | 50.47849 | 34888 ft | 487 kts | 22° |
| 2026-04-30 19:17 | 45.40768 | 50.54241 | 34887 ft | 488 kts | 22° |
| 2026-04-30 19:18 | 45.49886 | 50.60632 | 34884 ft | 489 kts | 22° |
| 2026-04-30 19:19 | 45.55998 | 50.64932 | 34883 ft | 489 kts | 22° |
| 2026-04-30 19:19 | 45.65155 | 50.71392 | 34881 ft | 489 kts | 23° |
| 2026-04-30 19:20 | 45.71258 | 50.75710 | 34881 ft | 489 kts | 23° |
| 2026-04-30 19:21 | 45.80405 | 50.82202 | 34880 ft | 489 kts | 23° |
| 2026-04-30 19:22 | 45.92426 | 50.90770 | 34880 ft | 489 kts | 23° |
| 2026-04-30 19:23 | 46.10737 | 51.03902 | 34877 ft | 492 kts | 23° |
| 2026-04-30 19:24 | 46.18887 | 51.09778 | 34880 ft | 492 kts | 23° |
| 2026-04-30 19:25 | 46.34188 | 51.20865 | 34879 ft | 491 kts | 23° |
| 2026-04-30 19:26 | 46.46401 | 51.29763 | 34879 ft | 491 kts | 23° |
| 2026-04-30 19:27 | 46.55559 | 51.36465 | 34878 ft | 491 kts | 23° |
| 2026-04-30 19:28 | 46.64697 | 51.43179 | 34876 ft | 492 kts | 23° |
| 2026-04-30 19:29 | 46.76922 | 51.52200 | 34875 ft | 492 kts | 23° |
| 2026-04-30 19:30 | 46.89160 | 51.61277 | 34886 ft | 493 kts | 23° |
| 2026-04-30 19:31 | 47.01378 | 51.70386 | 34874 ft | 495 kts | 23° |
| 2026-04-30 19:31 | 47.10584 | 51.77280 | 34873 ft | 495 kts | 23° |
| 2026-04-30 19:32 | 47.13750 | 51.79238 | 34849 ft | 490 kts | 10° |
| 2026-04-30 19:32 | 47.17078 | 51.79976 | 34886 ft | 480 kts | 356° |
| 2026-04-30 19:32 | 47.23706 | 51.79779 | 34935 ft | 474 kts | 351° |
| 2026-04-30 19:33 | 47.30295 | 51.79294 | 34878 ft | 474 kts | 351° |
| 2026-04-30 19:33 | 47.36893 | 51.78851 | 34875 ft | 475 kts | 351° |
| 2026-04-30 19:34 | 47.43320 | 51.78448 | 34875 ft | 474 kts | 351° |
| 2026-04-30 19:35 | 47.53210 | 51.77848 | 34874 ft | 474 kts | 351° |
| 2026-04-30 19:35 | 47.59804 | 51.77451 | 34872 ft | 474 kts | 351° |
| 2026-04-30 19:36 | 47.66424 | 51.77054 | 34872 ft | 475 kts | 351° |
| 2026-04-30 19:36 | 47.76348 | 51.76458 | 34871 ft | 476 kts | 351° |
| 2026-04-30 19:37 | 47.82958 | 51.76061 | 34871 ft | 476 kts | 351° |
| 2026-04-30 19:37 | 47.89537 | 51.75658 | 34869 ft | 476 kts | 351° |
| 2026-04-30 19:38 | 47.96152 | 51.75248 | 34868 ft | 476 kts | 351° |
| 2026-04-30 19:38 | 48.02773 | 51.74836 | 34867 ft | 476 kts | 351° |
| 2026-04-30 19:39 | 48.09391 | 51.74423 | 34867 ft | 476 kts | 351° |
| 2026-04-30 19:39 | 48.16013 | 51.74009 | 34864 ft | 476 kts | 351° |
| 2026-04-30 19:40 | 48.22632 | 51.73594 | 34862 ft | 476 kts | 351° |
| 2026-04-30 19:40 | 48.29247 | 51.73179 | 34861 ft | 476 kts | 351° |
| 2026-04-30 19:41 | 48.35825 | 51.72764 | 34859 ft | 476 kts | 351° |
| 2026-04-30 19:41 | 48.42427 | 51.72347 | 34859 ft | 475 kts | 351° |
| 2026-04-30 19:42 | 48.49032 | 51.71929 | 34855 ft | 475 kts | 351° |
| 2026-04-30 19:42 | 48.55635 | 51.71509 | 34853 ft | 475 kts | 351° |
| 2026-04-30 19:43 | 48.62245 | 51.71088 | 34851 ft | 475 kts | 351° |
| 2026-04-30 19:44 | 48.72149 | 51.70457 | 34848 ft | 475 kts | 351° |
| 2026-04-30 19:44 | 48.78750 | 51.70033 | 34846 ft | 475 kts | 351° |
| 2026-04-30 19:45 | 48.85315 | 51.69611 | 34845 ft | 475 kts | 351° |
| 2026-04-30 19:45 | 48.91919 | 51.69186 | 34842 ft | 475 kts | 351° |
| 2026-04-30 19:46 | 48.98516 | 51.68760 | 34839 ft | 475 kts | 351° |
| 2026-04-30 19:46 | 49.05122 | 51.68331 | 34837 ft | 475 kts | 351° |
| 2026-04-30 19:47 | 49.11723 | 51.67900 | 34835 ft | 475 kts | 351° |
| 2026-04-30 19:47 | 49.18188 | 51.67478 | 34832 ft | 474 kts | 351° |
| 2026-04-30 19:48 | 49.24791 | 51.67045 | 34831 ft | 475 kts | 351° |
| 2026-04-30 19:48 | 49.31401 | 51.66611 | 34828 ft | 475 kts | 351° |
| 2026-04-30 19:49 | 49.37967 | 51.66178 | 34825 ft | 475 kts | 351° |
| 2026-04-30 19:49 | 49.47884 | 51.65522 | 34824 ft | 475 kts | 352° |
| 2026-04-30 19:50 | 49.54501 | 51.65083 | 34819 ft | 475 kts | 352° |
| 2026-04-30 19:50 | 49.61100 | 51.64644 | 34820 ft | 474 kts | 352° |
| 2026-04-30 19:51 | 49.67698 | 51.64204 | 34815 ft | 475 kts | 352° |
| 2026-04-30 19:51 | 49.74253 | 51.63765 | 34813 ft | 475 kts | 352° |
| 2026-04-30 19:52 | 49.80853 | 51.63323 | 34810 ft | 474 kts | 352° |
| 2026-04-30 19:52 | 49.87448 | 51.62879 | 34808 ft | 474 kts | 352° |
| 2026-04-30 19:53 | 49.94043 | 51.62434 | 34806 ft | 474 kts | 352° |
| 2026-04-30 19:53 | 50.00641 | 51.61988 | 34800 ft | 474 kts | 352° |
| 2026-04-30 19:54 | 50.07237 | 51.61541 | 34802 ft | 474 kts | 352° |
| 2026-04-30 19:54 | 50.13786 | 51.61095 | 34801 ft | 474 kts | 352° |
| 2026-04-30 19:55 | 50.20266 | 51.60654 | 34798 ft | 474 kts | 352° |
| 2026-04-30 19:55 | 50.26856 | 51.60203 | 34797 ft | 474 kts | 352° |
| 2026-04-30 19:56 | 50.33449 | 51.59751 | 34797 ft | 475 kts | 352° |
| 2026-04-30 19:56 | 50.40051 | 51.59296 | 34794 ft | 475 kts | 352° |
| 2026-04-30 19:57 | 50.46620 | 51.58860 | 34793 ft | 475 kts | 352° |
| 2026-04-30 19:57 | 50.53215 | 51.58434 | 34792 ft | 475 kts | 352° |
| 2026-04-30 19:58 | 50.59833 | 51.58005 | 34784 ft | 475 kts | 352° |
| 2026-04-30 19:58 | 50.66442 | 51.57575 | 34792 ft | 475 kts | 352° |
| 2026-04-30 19:59 | 50.73061 | 51.57143 | 34789 ft | 476 kts | 352° |
| 2026-04-30 20:00 | 50.82948 | 51.56498 | 34786 ft | 476 kts | 352° |
| 2026-04-30 20:00 | 50.89570 | 51.56062 | 34787 ft | 476 kts | 352° |
| 2026-04-30 20:01 | 50.99523 | 51.55406 | 34787 ft | 477 kts | 353° |
| 2026-04-30 20:01 | 51.06160 | 51.54966 | 34788 ft | 477 kts | 353° |
| 2026-04-30 20:02 | 51.15816 | 51.52707 | 34817 ft | 462 kts | 329° |
| 2026-04-30 20:03 | 51.23993 | 51.44844 | 34792 ft | 455 kts | 321° |
| 2026-04-30 20:03 | 51.29248 | 51.39224 | 34784 ft | 454 kts | 320° |
| 2026-04-30 20:04 | 51.34494 | 51.33588 | 34786 ft | 454 kts | 321° |
| 2026-04-30 20:05 | 51.42390 | 51.25119 | 34787 ft | 455 kts | 321° |
| 2026-04-30 20:05 | 51.50180 | 51.16842 | 34783 ft | 456 kts | 321° |
| 2026-04-30 20:06 | 51.52831 | 51.14048 | 34389 ft | 455 kts | 321° |
| 2026-04-30 20:06 | 51.55469 | 51.11261 | 33955 ft | 451 kts | 321° |
| 2026-04-30 20:06 | 51.58086 | 51.08490 | 33534 ft | 447 kts | 321° |
| 2026-04-30 20:06 | 51.60673 | 51.05745 | 33041 ft | 444 kts | 321° |
| 2026-04-30 20:07 | 51.63248 | 51.03011 | 32534 ft | 442 kts | 321° |
| 2026-04-30 20:07 | 51.65826 | 51.00326 | 32021 ft | 442 kts | 324° |
| 2026-04-30 20:07 | 51.71578 | 50.96723 | 31177 ft | 443 kts | 338° |
| 2026-04-30 20:08 | 51.74544 | 50.95402 | 30674 ft | 441 kts | 339° |
| 2026-04-30 20:08 | 51.77514 | 50.94153 | 30159 ft | 440 kts | 340° |
| 2026-04-30 20:08 | 51.80469 | 50.92939 | 29705 ft | 436 kts | 340° |
| 2026-04-30 20:08 | 51.83392 | 50.91719 | 29269 ft | 432 kts | 339° |
| 2026-04-30 20:09 | 51.86284 | 50.90497 | 28826 ft | 428 kts | 339° |
| 2026-04-30 20:09 | 51.89150 | 50.89276 | 28381 ft | 424 kts | 339° |
| 2026-04-30 20:09 | 51.94585 | 50.86321 | 27528 ft | 400 kts | 322° |
| 2026-04-30 20:10 | 51.98844 | 50.81044 | 26895 ft | 378 kts | 313° |
| 2026-04-30 20:10 | 52.00843 | 50.78305 | 26447 ft | 375 kts | 313° |
| 2026-04-30 20:10 | 52.02811 | 50.75544 | 26034 ft | 371 kts | 312° |
| 2026-04-30 20:11 | 52.06754 | 50.69943 | 25221 ft | 380 kts | 312° |
| 2026-04-30 20:11 | 52.08068 | 50.68077 | 24930 ft | 379 kts | 312° |
| 2026-04-30 20:11 | 52.10713 | 50.64317 | 24343 ft | 375 kts | 312° |
| 2026-04-30 20:12 | 52.13916 | 50.59763 | 23956 ft | 359 kts | 311° |
| 2026-04-30 20:12 | 52.15769 | 50.57125 | 23773 ft | 348 kts | 311° |
| 2026-04-30 20:12 | 52.17572 | 50.54560 | 23509 ft | 341 kts | 311° |
| 2026-04-30 20:13 | 52.19346 | 50.52028 | 23088 ft | 338 kts | 311° |
| 2026-04-30 20:13 | 52.21116 | 50.49501 | 22577 ft | 338 kts | 311° |
| 2026-04-30 20:13 | 52.22880 | 50.46981 | 22162 ft | 335 kts | 311° |
| 2026-04-30 20:13 | 52.24626 | 50.44483 | 21733 ft | 332 kts | 311° |
| 2026-04-30 20:14 | 52.26366 | 50.41992 | 21255 ft | 332 kts | 311° |
| 2026-04-30 20:14 | 52.28078 | 50.39538 | 20812 ft | 330 kts | 311° |
| 2026-04-30 20:14 | 52.29798 | 50.37070 | 20384 ft | 327 kts | 312° |
| 2026-04-30 20:14 | 52.31505 | 50.34618 | 19923 ft | 326 kts | 312° |
| 2026-04-30 20:15 | 52.33204 | 50.32175 | 19482 ft | 324 kts | 312° |
| 2026-04-30 20:15 | 52.34888 | 50.29750 | 19056 ft | 322 kts | 312° |
| 2026-04-30 20:15 | 52.36569 | 50.27329 | 18590 ft | 321 kts | 312° |
| 2026-04-30 20:15 | 52.38238 | 50.24922 | 18166 ft | 318 kts | 312° |
| 2026-04-30 20:16 | 52.39896 | 50.22528 | 17714 ft | 317 kts | 312° |
| 2026-04-30 20:16 | 52.41544 | 50.20144 | 17286 ft | 315 kts | 312° |
| 2026-04-30 20:16 | 52.43156 | 50.17812 | 16883 ft | 312 kts | 312° |
| 2026-04-30 20:16 | 52.44798 | 50.15434 | 16430 ft | 310 kts | 312° |
| 2026-04-30 20:17 | 52.46408 | 50.13099 | 16019 ft | 308 kts | 312° |
| 2026-04-30 20:17 | 52.47982 | 50.10815 | 15600 ft | 305 kts | 312° |
| 2026-04-30 20:17 | 52.49569 | 50.08509 | 15166 ft | 304 kts | 312° |
| 2026-04-30 20:17 | 52.51138 | 50.06225 | 15021 ft | 302 kts | 312° |
| 2026-04-30 20:18 | 52.52716 | 50.03928 | 15009 ft | 302 kts | 312° |
| 2026-04-30 20:18 | 52.54339 | 50.01717 | 14912 ft | 303 kts | 320° |
| 2026-04-30 20:18 | 52.56307 | 50.00406 | 14543 ft | 310 kts | 343° |
| 2026-04-30 20:18 | 52.58470 | 50.00370 | 14173 ft | 314 kts | 5° |
| 2026-04-30 20:19 | 52.60575 | 50.01344 | 13808 ft | 315 kts | 15° |
| 2026-04-30 20:19 | 52.62635 | 50.02635 | 13295 ft | 319 kts | 19° |
| 2026-04-30 20:19 | 52.64688 | 50.04047 | 12808 ft | 321 kts | 20° |
| 2026-04-30 20:19 | 52.66708 | 50.05496 | 12412 ft | 319 kts | 20° |
| 2026-04-30 20:20 | 52.68729 | 50.06975 | 12069 ft | 316 kts | 21° |
| 2026-04-30 20:20 | 52.70734 | 50.08447 | 11671 ft | 315 kts | 21° |
| 2026-04-30 20:20 | 52.72725 | 50.09912 | 11398 ft | 309 kts | 21° |
| 2026-04-30 20:20 | 52.74645 | 50.11323 | 11332 ft | 296 kts | 21° |
| 2026-04-30 20:21 | 52.76502 | 50.12688 | 11147 ft | 291 kts | 21° |
| 2026-04-30 20:21 | 52.78354 | 50.14054 | 10834 ft | 292 kts | 21° |
| 2026-04-30 20:21 | 52.80200 | 50.15418 | 10562 ft | 290 kts | 21° |
| 2026-04-30 20:21 | 52.82043 | 50.16777 | 10275 ft | 289 kts | 21° |
| 2026-04-30 20:22 | 52.83881 | 50.18135 | 9979 ft | 289 kts | 21° |
| 2026-04-30 20:22 | 52.85713 | 50.19490 | 9665 ft | 288 kts | 21° |
| 2026-04-30 20:22 | 52.87539 | 50.20842 | 9355 ft | 287 kts | 21° |
| 2026-04-30 20:22 | 52.89362 | 50.22167 | 9059 ft | 285 kts | 20° |
| 2026-04-30 20:23 | 52.91217 | 50.23306 | 8737 ft | 284 kts | 16° |
| 2026-04-30 20:23 | 52.93082 | 50.24342 | 8460 ft | 282 kts | 15° |
| 2026-04-30 20:23 | 52.94937 | 50.25349 | 8185 ft | 280 kts | 15° |
| 2026-04-30 20:23 | 52.96779 | 50.26356 | 7893 ft | 278 kts | 15° |
| 2026-04-30 20:24 | 52.98609 | 50.27364 | 7615 ft | 276 kts | 16° |
| 2026-04-30 20:24 | 53.00425 | 50.28370 | 7319 ft | 275 kts | 16° |
| 2026-04-30 20:24 | 53.02233 | 50.29374 | 7082 ft | 272 kts | 16° |
| 2026-04-30 20:24 | 53.04021 | 50.30372 | 7031 ft | 271 kts | 17° |
| 2026-04-30 20:25 | 53.07565 | 50.32356 | 6993 ft | 261 kts | 16° |
| 2026-04-30 20:25 | 53.09264 | 50.33312 | 6994 ft | 261 kts | 16° |
| 2026-04-30 20:26 | 53.12724 | 50.35260 | 6987 ft | 260 kts | 17° |
| 2026-04-30 20:26 | 53.16133 | 50.37188 | 6999 ft | 260 kts | 16° |
| 2026-04-30 20:26 | 53.17843 | 50.38156 | 6997 ft | 259 kts | 16° |
| 2026-04-30 20:27 | 53.21263 | 50.40097 | 6992 ft | 259 kts | 16° |
| 2026-04-30 20:27 | 53.24673 | 50.42034 | 6780 ft | 254 kts | 16° |
| 2026-04-30 20:28 | 53.27830 | 50.41615 | 6118 ft | 221 kts | 323° |
| 2026-04-30 20:28 | 53.29928 | 50.38081 | 5618 ft | 210 kts | 306° |
| 2026-04-30 20:29 | 53.31787 | 50.34380 | 4864 ft | 207 kts | 306° |
| 2026-04-30 20:30 | 53.34504 | 50.28932 | 3738 ft | 202 kts | 306° |
| 2026-04-30 20:30 | 53.37743 | 50.25122 | 2656 ft | 182 kts | 336° |
| 2026-04-30 20:31 | 53.40960 | 50.23304 | 1620 ft | 154 kts | 340° |
| 2026-04-30 20:32 | 53.43988 | 50.21536 | 854 ft | 153 kts | 340° |
| 2026-04-30 20:32 | 53.45981 | 50.20351 | 739 ft | 153 kts | 341° |
| 2026-04-30 20:33 | 53.46976 | 50.19742 | 666 ft | 152 kts | 340° |
| 2026-04-30 20:33 | 53.48946 | 50.18576 | 567 ft | 149 kts | 341° |
| 2026-04-30 20:33 | 53.49914 | 50.18012 | 501 ft | 142 kts | 341° |
| 2026-04-30 20:34 | 53.51106 | 50.17302 | 488 ft | 14 kts | 341° |
| 2026-04-30 20:34 | 53.51112 | 50.17299 | 488 ft | 0 kts | 341° |
| 2026-04-30 20:35 | 53.51124 | 50.17292 | 488 ft | 5 kts | 341° |
| 2026-04-30 20:35 | 53.51173 | 50.17264 | 488 ft | 10 kts | 341° |
| 2026-04-30 20:35 | 53.51336 | 50.17166 | 488 ft | 13 kts | 340° |
| 2026-04-30 20:36 | 53.51422 | 50.17114 | 488 ft | 9 kts | 340° |
| 2026-04-30 20:36 | 53.51453 | 50.17082 | 488 ft | 3 kts | 293° |
| 2026-04-30 20:36 | 53.51426 | 50.16980 | 488 ft | 8 kts | 240° |
| 2026-04-30 20:37 | 53.51404 | 50.16914 | 488 ft | 6 kts | 240° |
| 2026-04-30 20:37 | 53.51382 | 50.16846 | 488 ft | 8 kts | 243° |
| 2026-04-30 20:37 | 53.51353 | 50.16752 | 488 ft | 8 kts | 242° |
| 2026-04-30 20:37 | 53.51324 | 50.16662 | 488 ft | 9 kts | 241° |
| 2026-04-30 20:38 | 53.51292 | 50.16563 | 488 ft | 7 kts | 241° |
| 2026-04-30 20:38 | 53.51261 | 50.16467 | 488 ft | 11 kts | 242° |
| 2026-04-30 20:38 | 53.51222 | 50.16345 | 488 ft | 8 kts | 241° |
| 2026-04-30 20:39 | 53.51164 | 50.16164 | 488 ft | 7 kts | 241° |
| 2026-04-30 20:39 | 53.51136 | 50.16079 | 488 ft | 9 kts | 241° |
| 2026-04-30 20:39 | 53.51118 | 50.16020 | 488 ft | 5 kts | 250° |
| 2026-04-30 20:40 | 53.51160 | 50.15957 | 488 ft | 7 kts | 331° |
| 2026-04-30 20:40 | 53.51175 | 50.15942 | 488 ft | 0 kts | 329° |